createdAt,value
2023-03-31T00:01:42.547Z,6.63
2023-03-31T00:04:13.144Z,5.38
2023-03-31T00:06:42.090Z,5.10
2023-03-31T00:09:13.962Z,5.35
2023-03-31T00:11:40.804Z,6.65
2023-03-31T00:14:08.583Z,6.63
2023-03-31T00:16:36.747Z,6.72
2023-03-31T00:19:04.013Z,6.00
2023-03-31T00:21:34.054Z,5.65
2023-03-31T00:24:03.640Z,5.80
2023-03-31T00:26:30.945Z,6.85
2023-03-31T00:28:58.206Z,6.35
2023-03-31T00:31:26.963Z,6.05
2023-03-31T00:33:53.895Z,6.57
2023-03-31T00:36:27.297Z,6.95
2023-03-31T00:38:59.709Z,5.78
2023-03-31T00:41:27.759Z,6.38
2023-03-31T00:44:09.263Z,5.68
2023-03-31T00:46:44.037Z,6.82
2023-03-31T00:49:21.175Z,6.75
2023-03-31T00:51:51.359Z,5.88
2023-03-31T00:54:19.440Z,6.30
2023-03-31T00:56:48.854Z,6.88
2023-03-31T00:59:15.765Z,6.57
2023-03-31T01:01:47.415Z,7.35
2023-03-31T01:04:16.303Z,7.05
2023-03-31T01:06:57.324Z,7.07
2023-03-31T01:09:24.907Z,7.05
2023-03-31T01:11:51.943Z,7.68
2023-03-31T01:14:18.455Z,7.05
2023-03-31T01:16:45.125Z,7.40
2023-03-31T01:19:25.962Z,7.18
2023-03-31T01:22:21.394Z,6.25
2023-03-31T01:25:05.883Z,7.70
2023-03-31T01:28:16.501Z,7.18
2023-03-31T01:31:05.686Z,5.78
2023-03-31T01:33:56.746Z,6.65
2023-03-31T01:36:59.833Z,6.38
2023-03-31T01:39:48.181Z,6.68
2023-03-31T01:42:25.642Z,7.05
2023-03-31T01:45:16.986Z,6.28
2023-03-31T01:47:54.974Z,6.38
2023-03-31T01:50:29.058Z,2.20
2023-03-31T01:53:33.872Z,2.05
2023-03-31T01:56:19.740Z,2.05
2023-03-31T01:59:01.843Z,1.88
2023-03-31T02:01:34.421Z,2.97
2023-03-31T02:04:15.561Z,2.45
2023-03-31T02:06:46.882Z,2.70
2023-03-31T02:09:19.865Z,3.40
2023-03-31T02:14:21.741Z,2.28
2023-03-31T02:19:19.177Z,2.65
2023-03-31T02:21:49.762Z,4.63
2023-03-31T02:24:19.552Z,3.78
2023-03-31T02:26:56.316Z,3.80
2023-03-31T02:29:23.420Z,3.20
2023-03-31T02:32:05.346Z,4.85
2023-03-31T02:34:31.865Z,3.92
2023-03-31T02:36:58.474Z,3.63
2023-03-31T02:39:35.521Z,4.03
2023-03-31T02:42:07.168Z,3.88
2023-03-31T02:44:35.168Z,3.30
2023-03-31T02:47:04.407Z,2.80
2023-03-31T02:49:31.573Z,2.55
2023-03-31T02:52:41.706Z,2.67
2023-03-31T02:55:23.304Z,2.25
2023-03-31T02:58:19.188Z,2.25
2023-03-31T03:00:58.493Z,3.00
2023-03-31T03:03:47.192Z,2.17
2023-03-31T03:06:13.768Z,2.35
2023-03-31T03:09:29.770Z,2.78
2023-03-31T03:12:25.167Z,2.50
2023-03-31T03:14:54.521Z,2.88
2023-03-31T03:17:28.804Z,2.53
2023-03-31T03:19:59.024Z,2.40
2023-03-31T03:22:25.660Z,2.75
2023-03-31T03:24:52.599Z,2.08
2023-03-31T03:27:22.307Z,1.80
2023-03-31T03:29:48.803Z,2.15
2023-03-31T03:32:15.256Z,1.52
2023-03-31T03:34:41.717Z,1.83
2023-03-31T03:37:08.449Z,2.17
2023-03-31T03:39:34.861Z,2.00
2023-03-31T03:42:01.347Z,2.30
2023-03-31T03:44:27.894Z,2.20
2023-03-31T03:46:54.340Z,2.58
2023-03-31T03:49:20.990Z,2.30
2023-03-31T03:51:48.619Z,2.17
2023-03-31T03:54:16.031Z,3.72
2023-03-31T03:56:42.465Z,2.15
2023-03-31T03:59:08.957Z,2.30
2023-03-31T04:01:36.126Z,2.00
2023-03-31T04:04:03.195Z,2.33
2023-03-31T04:06:29.757Z,2.05
2023-03-31T04:08:56.216Z,2.08
2023-03-31T04:11:26.133Z,2.38
2023-03-31T04:13:52.605Z,2.13
2023-03-31T04:16:19.180Z,2.53
2023-03-31T04:18:45.709Z,2.50
2023-03-31T04:21:15.532Z,3.08
2023-03-31T04:23:46.396Z,2.72
2023-03-31T04:26:15.384Z,3.78
2023-03-31T04:28:50.522Z,2.95
2023-03-31T04:31:25.344Z,2.90
2023-03-31T04:33:55.566Z,3.40
2023-03-31T04:36:22.330Z,2.85
2023-03-31T04:38:56.200Z,2.42
2023-03-31T04:41:25.056Z,2.72
2023-03-31T04:43:51.540Z,2.33
2023-03-31T04:46:18.116Z,2.22
2023-03-31T04:48:44.715Z,2.30
2023-03-31T04:51:11.255Z,2.58
2023-03-31T04:53:37.733Z,2.78
2023-03-31T04:56:04.743Z,1.60
2023-03-31T04:58:31.490Z,1.95
2023-03-31T05:00:57.994Z,3.05
2023-03-31T05:03:24.617Z,2.55
2023-03-31T05:05:51.202Z,3.45
2023-03-31T05:08:17.748Z,1.77
2023-03-31T05:10:44.421Z,2.53
2023-03-31T05:13:11.066Z,1.77
2023-03-31T05:15:38.875Z,1.90
2023-03-31T05:18:06.490Z,2.65
2023-03-31T05:20:33.360Z,2.40
2023-03-31T05:22:59.916Z,1.90
2023-03-31T05:25:26.580Z,2.47
2023-03-31T05:27:53.058Z,1.20
2023-03-31T05:30:19.542Z,1.80
2023-03-31T05:32:46.174Z,1.58
2023-03-31T05:35:12.589Z,2.13
2023-03-31T05:37:39.006Z,1.67
2023-03-31T05:40:06.365Z,1.95
2023-03-31T05:42:32.751Z,1.63
2023-03-31T05:44:59.320Z,1.88
2023-03-31T05:47:25.700Z,1.67
2023-03-31T05:49:53.101Z,2.20
2023-03-31T05:52:19.742Z,1.40
2023-03-31T05:54:46.176Z,2.30
2023-03-31T05:57:12.982Z,1.90
2023-03-31T05:59:40.766Z,2.53
2023-03-31T06:02:07.855Z,1.98
2023-03-31T06:04:34.400Z,1.63
2023-03-31T06:07:00.863Z,1.35
2023-03-31T06:09:28.253Z,2.15
2023-03-31T06:11:54.684Z,2.03
2023-03-31T06:14:21.133Z,1.70
2023-03-31T06:16:48.145Z,1.50
2023-03-31T06:19:14.670Z,1.67
2023-03-31T06:21:41.168Z,1.98
2023-03-31T06:24:09.504Z,2.05
2023-03-31T06:26:35.910Z,3.08
2023-03-31T06:29:02.400Z,1.98
2023-03-31T06:31:28.887Z,2.13
2023-03-31T06:33:55.689Z,2.85
2023-03-31T06:36:22.558Z,2.28
2023-03-31T06:38:50.829Z,2.22
2023-03-31T06:41:20.075Z,2.10
2023-03-31T06:43:46.677Z,1.92
2023-03-31T06:46:13.742Z,2.20
2023-03-31T06:48:41.211Z,2.75
2023-03-31T06:51:08.487Z,2.33
2023-03-31T06:53:35.353Z,2.15
2023-03-31T06:56:02.024Z,3.10
2023-03-31T06:58:31.136Z,2.78
2023-03-31T07:00:57.954Z,3.60
2023-03-31T07:03:25.176Z,4.07
2023-03-31T07:05:53.271Z,2.80
2023-03-31T07:08:20.040Z,3.65
2023-03-31T07:10:48.505Z,3.13
2023-03-31T07:13:16.339Z,3.97
2023-03-31T07:15:43.320Z,3.17
2023-03-31T07:18:10.074Z,4.18
2023-03-31T07:20:37.936Z,4.28
2023-03-31T07:23:05.731Z,3.92
2023-03-31T07:25:32.150Z,3.38
2023-03-31T07:27:58.562Z,4.90
2023-03-31T07:30:24.947Z,4.20
2023-03-31T07:32:52.319Z,4.53
2023-03-31T07:35:19.725Z,3.17
2023-03-31T07:37:48.520Z,3.67
2023-03-31T07:40:18.584Z,4.00
2023-03-31T07:42:48.661Z,3.72
2023-03-31T07:45:16.853Z,3.80
2023-03-31T07:47:46.511Z,4.82
2023-03-31T07:50:14.386Z,4.20
2023-03-31T07:52:40.929Z,4.47
2023-03-31T07:55:08.346Z,4.15
2023-03-31T07:57:36.046Z,4.93
2023-03-31T08:00:07.689Z,5.30
2023-03-31T08:02:39.290Z,3.60
2023-03-31T08:05:07.200Z,4.43
2023-03-31T08:07:39.338Z,4.22
2023-03-31T08:10:07.955Z,4.88
2023-03-31T08:12:34.343Z,5.53
2023-03-31T08:15:01.159Z,4.47
2023-03-31T08:17:28.134Z,3.25
2023-03-31T08:19:54.715Z,3.78
2023-03-31T08:22:23.126Z,3.95
2023-03-31T08:24:49.476Z,4.45
2023-03-31T08:27:16.816Z,3.60
2023-03-31T08:29:43.204Z,2.50
2023-03-31T08:32:09.671Z,2.95
2023-03-31T08:34:36.389Z,3.17
2023-03-31T08:37:04.557Z,2.78
2023-03-31T08:39:32.440Z,3.40
2023-03-31T08:42:09.410Z,2.78
2023-03-31T08:44:51.064Z,2.67
2023-03-31T08:47:22.534Z,3.08
2023-03-31T08:49:56.717Z,3.85
2023-03-31T08:52:28.418Z,4.43
2023-03-31T08:55:01.266Z,3.22
2023-03-31T08:58:13.122Z,2.83
2023-03-31T09:01:16.725Z,1.83
2023-03-31T09:03:48.735Z,1.95
2023-03-31T09:06:24.161Z,2.00
2023-03-31T09:08:51.895Z,2.42
2023-03-31T09:11:40.482Z,1.90
2023-03-31T09:14:17.896Z,2.08
2023-03-31T09:17:01.054Z,1.80
2023-03-31T09:21:58.677Z,1.40
2023-03-31T09:24:33.097Z,1.77
2023-03-31T09:27:06.825Z,1.77
2023-03-31T09:29:48.897Z,1.77
2023-03-31T09:32:24.503Z,1.60
2023-03-31T09:35:00.999Z,2.22
2023-03-31T09:37:32.690Z,2.15
2023-03-31T09:40:07.280Z,2.17
2023-03-31T09:42:35.643Z,2.35
2023-03-31T09:45:02.684Z,2.13
2023-03-31T09:47:34.292Z,3.25
2023-03-31T09:50:00.723Z,2.20
2023-03-31T09:52:30.787Z,1.90
2023-03-31T09:55:06.949Z,2.53
2023-03-31T09:57:38.517Z,2.25
2023-03-31T10:00:14.106Z,2.35
2023-03-31T10:02:48.406Z,2.38
2023-03-31T10:05:36.549Z,2.05
2023-03-31T10:08:20.823Z,1.90
2023-03-31T10:11:17.746Z,2.25
2023-03-31T10:13:50.171Z,3.13
2023-03-31T10:16:29.680Z,4.22
2023-03-31T10:19:12.177Z,3.75
2023-03-31T10:21:38.858Z,2.95
2023-03-31T10:24:10.419Z,2.10
2023-03-31T10:26:37.273Z,0.50
2023-03-31T10:29:11.576Z,0.90
2023-03-31T10:31:38.896Z,1.55
2023-03-31T10:34:12.880Z,1.45
2023-03-31T10:36:46.720Z,0.77
2023-03-31T10:39:17.074Z,0.32
2023-03-31T10:41:43.702Z,0.32
2023-03-31T10:44:31.495Z,0.57
2023-03-31T10:47:05.895Z,0.40
2023-03-31T10:49:39.359Z,0.68
2023-03-31T10:52:16.532Z,1.45
2023-03-31T10:54:53.493Z,1.08
2023-03-31T10:57:34.190Z,1.00
2023-03-31T11:00:08.908Z,0.70
2023-03-31T11:03:03.636Z,0.93
2023-03-31T11:05:49.552Z,0.80
2023-03-31T11:08:44.493Z,1.20
2023-03-31T11:11:50.738Z,0.93
2023-03-31T11:14:36.294Z,1.33
2023-03-31T11:17:27.781Z,1.05
2023-03-31T11:20:21.940Z,1.17
2023-03-31T11:22:59.866Z,0.82
2023-03-31T11:25:39.228Z,1.10
2023-03-31T11:28:27.040Z,1.10
2023-03-31T11:31:12.229Z,1.63
2023-03-31T11:34:08.417Z,1.38
2023-03-31T11:36:44.486Z,2.35
2023-03-31T11:39:31.659Z,2.42
2023-03-31T11:42:03.014Z,1.75
2023-03-31T11:44:39.438Z,1.90
2023-03-31T11:47:15.444Z,2.00
2023-03-31T11:49:48.273Z,2.80
2023-03-31T11:52:17.552Z,3.95
2023-03-31T11:55:05.656Z,2.30
2023-03-31T11:57:40.517Z,2.63
2023-03-31T12:00:16.658Z,2.65
2023-03-31T12:02:53.663Z,2.75
2023-03-31T12:05:24.421Z,3.65
2023-03-31T12:08:22.416Z,3.25
2023-03-31T12:10:55.652Z,2.75
2023-03-31T12:13:35.667Z,2.85
2023-03-31T12:16:20.472Z,3.08
2023-03-31T12:19:02.168Z,3.30
2023-03-31T12:21:29.817Z,2.58
2023-03-31T12:23:56.477Z,2.67
2023-03-31T12:26:48.148Z,2.30
2023-03-31T12:29:36.306Z,2.08
2023-03-31T12:32:07.978Z,13.05
2023-03-31T12:34:39.028Z,2.25
2023-03-31T12:37:14.513Z,0.70
2023-03-31T12:39:56.252Z,1.27
2023-03-31T12:42:50.208Z,1.60
2023-03-31T12:45:27.408Z,1.08
2023-03-31T12:48:26.354Z,1.35
2023-03-31T12:51:11.382Z,1.30
2023-03-31T12:54:08.990Z,1.67
2023-03-31T12:57:03.534Z,2.10
2023-03-31T12:59:38.340Z,1.55
2023-03-31T13:02:14.799Z,1.33
2023-03-31T13:04:42.032Z,1.75
2023-03-31T13:07:33.026Z,2.47
2023-03-31T13:10:25.566Z,1.42
2023-03-31T13:13:16.120Z,1.50
2023-03-31T13:15:55.434Z,1.20
2023-03-31T13:18:22.693Z,0.80
2023-03-31T13:23:36.989Z,0.70
2023-03-31T13:26:04.127Z,1.23
2023-03-31T13:28:42.298Z,1.48
2023-03-31T13:31:14.751Z,0.47
2023-03-31T13:33:46.783Z,0.60
2023-03-31T13:36:31.264Z,0.65
2023-03-31T13:39:35.166Z,0.20
2023-03-31T13:42:25.241Z,0.20
2023-03-31T13:44:55.465Z,0.50
2023-03-31T13:47:43.995Z,0.32
2023-03-31T13:50:41.614Z,0.30
2023-03-31T13:53:29.306Z,0.43
2023-03-31T13:56:24.213Z,0.38
2023-03-31T13:59:06.070Z,0.50
2023-03-31T14:02:00.099Z,2.08
2023-03-31T14:04:47.891Z,0.50
2023-03-31T14:07:26.459Z,1.27
2023-03-31T14:09:53.946Z,0.50
2023-03-31T14:12:37.709Z,0.60
2023-03-31T14:15:06.335Z,0.68
2023-03-31T14:17:38.637Z,0.77
2023-03-31T14:20:22.794Z,1.00
2023-03-31T14:23:04.151Z,0.70
2023-03-31T14:25:43.881Z,1.10
2023-03-31T14:28:19.472Z,1.25
2023-03-31T14:31:21.330Z,0.70
2023-03-31T14:34:09.442Z,0.93
2023-03-31T14:36:57.681Z,0.50
2023-03-31T14:39:29.390Z,0.90
2023-03-31T14:42:01.358Z,1.35
2023-03-31T14:44:28.659Z,1.27
2023-03-31T14:46:57.382Z,0.95
2023-03-31T14:49:36.786Z,1.20
2023-03-31T14:52:14.934Z,1.73
2023-03-31T14:54:42.762Z,1.17
2023-03-31T14:57:12.519Z,2.55
2023-03-31T14:59:39.010Z,1.10
2023-03-31T15:02:06.451Z,1.20
2023-03-31T15:04:44.880Z,0.80
2023-03-31T15:07:12.956Z,0.68
2023-03-31T15:09:41.153Z,0.70
2023-03-31T15:12:12.354Z,0.63
2023-03-31T15:14:50.065Z,0.70
2023-03-31T15:17:26.428Z,0.70
2023-03-31T15:19:55.225Z,1.17
2023-03-31T15:22:23.776Z,0.80
2023-03-31T15:24:50.332Z,1.65
2023-03-31T15:27:35.652Z,1.95
2023-03-31T15:30:09.148Z,0.75
2023-03-31T15:32:37.659Z,1.02
2023-03-31T15:35:20.688Z,0.50
2023-03-31T15:37:51.977Z,0.60
2023-03-31T15:40:21.263Z,0.70
2023-03-31T15:43:02.037Z,0.85
2023-03-31T15:45:47.508Z,0.63
2023-03-31T15:48:20.580Z,1.88
2023-03-31T15:50:49.274Z,0.55
2023-03-31T15:53:46.247Z,0.52
2023-03-31T15:56:32.334Z,0.80
2023-03-31T15:59:04.306Z,1.05
2023-03-31T16:01:34.303Z,1.65
2023-03-31T16:04:06.408Z,0.52
2023-03-31T16:07:05.412Z,1.00
2023-03-31T16:09:44.629Z,0.85
2023-03-31T16:12:33.412Z,0.85
2023-03-31T16:15:03.922Z,0.73
2023-03-31T16:17:39.396Z,0.68
2023-03-31T16:20:17.695Z,1.00
2023-03-31T16:22:47.560Z,1.83
2023-03-31T16:25:18.268Z,1.45
2023-03-31T16:27:57.964Z,1.50
2023-03-31T16:30:41.397Z,1.85
2023-03-31T16:33:13.214Z,2.33
2023-03-31T16:35:43.886Z,2.47
2023-03-31T16:38:12.238Z,2.97
2023-03-31T16:40:41.581Z,1.60
2023-03-31T16:43:22.527Z,1.48
2023-03-31T16:45:57.442Z,1.42
2023-03-31T16:48:26.511Z,1.38
2023-03-31T16:50:55.115Z,1.90
2023-03-31T16:53:28.806Z,2.63
2023-03-31T16:55:56.061Z,1.73
2023-03-31T16:58:23.994Z,1.35
2023-03-31T17:00:51.688Z,1.83
2023-03-31T17:03:18.518Z,2.72
2023-03-31T17:05:47.569Z,1.80
2023-03-31T17:08:14.840Z,1.88
2023-03-31T17:10:41.753Z,2.35
2023-03-31T17:13:09.034Z,1.40
2023-03-31T17:15:36.439Z,1.42
2023-03-31T17:18:04.391Z,1.63
2023-03-31T17:20:31.337Z,2.42
2023-03-31T17:22:58.456Z,2.67
2023-03-31T17:25:25.245Z,2.28
2023-03-31T17:27:51.966Z,1.77
2023-03-31T17:30:18.402Z,1.92
2023-03-31T17:32:44.784Z,1.73
2023-03-31T17:35:11.506Z,1.90
2023-03-31T17:37:38.423Z,1.17
2023-03-31T17:40:06.202Z,1.80
2023-03-31T17:42:32.593Z,2.58
2023-03-31T17:44:59.037Z,1.42
2023-03-31T17:47:25.469Z,0.90
2023-03-31T17:49:51.992Z,1.58
2023-03-31T17:52:18.398Z,1.60
2023-03-31T17:54:44.813Z,1.25
2023-03-31T17:57:11.307Z,1.70
2023-03-31T17:59:38.943Z,1.13
2023-03-31T18:02:05.638Z,1.73
2023-03-31T18:04:32.262Z,1.40
2023-03-31T18:06:58.680Z,1.77
2023-03-31T18:09:25.090Z,1.85
2023-03-31T18:11:51.797Z,1.48
2023-03-31T18:14:18.425Z,1.63
2023-03-31T18:16:44.816Z,1.40
2023-03-31T18:19:11.248Z,1.63
2023-03-31T18:21:38.539Z,0.80
2023-03-31T18:24:04.934Z,1.85
2023-03-31T18:26:31.629Z,1.17
2023-03-31T18:28:59.009Z,1.13
2023-03-31T18:31:27.107Z,1.42
2023-03-31T18:33:54.718Z,1.42
2023-03-31T18:36:22.784Z,0.82
2023-03-31T18:38:50.604Z,1.63
2023-03-31T18:41:17.683Z,1.42
2023-03-31T18:43:44.447Z,0.63
2023-03-31T18:46:11.386Z,1.10
2023-03-31T18:48:38.385Z,0.68
2023-03-31T18:51:04.993Z,0.80
2023-03-31T18:53:31.356Z,1.05
2023-03-31T18:55:59.261Z,1.58
2023-03-31T18:58:30.378Z,0.70
2023-03-31T19:00:57.873Z,0.90
2023-03-31T19:03:26.515Z,1.23
2023-03-31T19:05:59.793Z,1.00
2023-03-31T19:08:26.137Z,1.45
2023-03-31T19:11:03.207Z,1.73
2023-03-31T19:13:29.610Z,1.52
2023-03-31T19:15:56.330Z,1.23
2023-03-31T19:18:23.272Z,1.20
2023-03-31T19:20:50.058Z,1.45
2023-03-31T19:23:19.469Z,1.73
2023-03-31T19:25:45.954Z,2.00
2023-03-31T19:28:16.683Z,1.83
2023-03-31T19:30:43.194Z,0.70
2023-03-31T19:33:09.628Z,0.95
2023-03-31T19:35:41.528Z,1.40
2023-03-31T19:38:08.612Z,1.30
2023-03-31T19:40:37.031Z,0.77
2023-03-31T19:43:04.139Z,1.55
2023-03-31T19:45:30.739Z,0.75
2023-03-31T19:47:57.568Z,1.00
2023-03-31T19:50:24.045Z,1.15
2023-03-31T19:52:50.493Z,1.08
2023-03-31T19:55:16.875Z,1.15
2023-03-31T19:57:45.845Z,0.90
2023-03-31T20:00:13.004Z,1.00
2023-03-31T20:02:39.632Z,1.55
2023-03-31T20:05:06.547Z,1.73
2023-03-31T20:07:32.885Z,0.93
2023-03-31T20:09:59.221Z,1.15
2023-03-31T20:12:25.880Z,1.23
2023-03-31T20:14:52.375Z,0.90
2023-03-31T20:17:19.363Z,2.47
2023-03-31T20:19:46.063Z,0.70
2023-03-31T20:22:12.519Z,0.90
2023-03-31T20:24:38.834Z,0.80
2023-03-31T20:27:05.494Z,1.00
2023-03-31T20:29:32.063Z,1.27
2023-03-31T20:31:58.574Z,0.90
2023-03-31T20:34:27.339Z,1.00
2023-03-31T20:36:53.830Z,1.75
2023-03-31T20:39:22.925Z,0.80
2023-03-31T20:41:50.242Z,1.08
2023-03-31T20:44:17.254Z,0.88
2023-03-31T20:46:44.778Z,0.63
2023-03-31T20:49:11.812Z,2.15
2023-03-31T20:51:38.511Z,0.52
2023-03-31T20:54:06.775Z,1.00
2023-03-31T20:56:37.595Z,1.15
2023-03-31T20:59:27.930Z,0.88
2023-03-31T21:02:02.922Z,1.58
2023-03-31T21:04:29.551Z,0.63
2023-03-31T21:06:55.941Z,0.88
2023-03-31T21:09:23.843Z,0.60
2023-03-31T21:11:51.413Z,1.15
2023-03-31T21:14:17.852Z,0.63
2023-03-31T21:16:44.678Z,1.02
2023-03-31T21:19:11.558Z,0.95
2023-03-31T21:21:40.851Z,1.15
2023-03-31T21:24:09.057Z,0.80
2023-03-31T21:26:35.466Z,1.13
2023-03-31T21:29:01.894Z,1.58
2023-03-31T21:31:28.367Z,0.88
2023-03-31T21:33:57.377Z,1.20
2023-03-31T21:36:24.477Z,1.48
2023-03-31T21:38:53.140Z,1.17
2023-03-31T21:41:23.954Z,0.70
2023-03-31T21:43:51.150Z,1.20
2023-03-31T21:46:24.159Z,1.00
2023-03-31T21:51:22.035Z,0.90
2023-03-31T21:53:50.268Z,0.88
2023-03-31T21:56:16.872Z,1.05
2023-03-31T21:58:43.251Z,0.82
2023-03-31T22:01:10.127Z,1.10
2023-03-31T22:03:38.319Z,1.10
2023-03-31T22:06:07.096Z,1.00
2023-03-31T22:08:36.357Z,1.45
2023-03-31T22:11:04.925Z,0.82
2023-03-31T22:13:31.577Z,1.83
2023-03-31T22:15:59.955Z,1.15
2023-03-31T22:18:26.347Z,1.23
2023-03-31T22:20:52.703Z,1.67
2023-03-31T22:23:20.729Z,1.63
2023-03-31T22:25:47.600Z,1.58
2023-03-31T22:28:15.338Z,1.65
2023-03-31T22:30:42.623Z,1.63
2023-03-31T22:33:09.011Z,1.50
2023-03-31T22:35:35.791Z,1.17
2023-03-31T22:38:02.993Z,1.33
2023-03-31T22:40:30.054Z,1.58
2023-03-31T22:42:58.230Z,1.40
2023-03-31T22:45:24.780Z,1.83
2023-03-31T22:47:51.355Z,1.63
2023-03-31T22:50:17.751Z,1.67
2023-03-31T22:52:45.300Z,1.35
2023-03-31T22:55:11.689Z,1.27
2023-03-31T22:57:38.288Z,1.25
2023-03-31T23:00:05.345Z,1.10
2023-03-31T23:02:31.770Z,1.67
2023-03-31T23:04:58.138Z,1.42
2023-03-31T23:07:24.534Z,0.90
2023-03-31T23:09:50.893Z,1.45
2023-03-31T23:12:17.212Z,1.42
2023-03-31T23:14:43.536Z,0.98
2023-03-31T23:17:09.890Z,1.33
2023-03-31T23:19:37.656Z,1.00
2023-03-31T23:22:04.333Z,1.70
2023-03-31T23:24:30.812Z,1.00
2023-03-31T23:26:57.193Z,1.85
2023-03-31T23:29:23.525Z,1.27
2023-03-31T23:31:50.024Z,1.35
2023-03-31T23:34:16.399Z,1.08
2023-03-31T23:36:43.039Z,1.55
2023-03-31T23:39:10.423Z,1.25
2023-03-31T23:41:36.748Z,1.50
2023-03-31T23:44:03.289Z,0.98
2023-03-31T23:46:29.849Z,1.70
2023-03-31T23:48:56.264Z,1.45
2023-03-31T23:51:23.226Z,0.93
2023-03-31T23:53:50.035Z,1.63
2023-03-31T23:56:16.892Z,1.58
2023-03-31T23:58:44.854Z,1.13
